Gothenburg, NE (69138)

2:25 PM CDT on August 30, 2014 (GMT -0500)
Cozad, Nebraska | Change Station
CLOSE
Current Station
Personal Weather Station
Location: Cozad, NE
Elevation: 2487 ft
Nearby Weather Stations

Elev 2487 ft 40.86 °N, 99.92 °W | Updated 15 seconds ago

Clear
Clear
79.6 °F
Feels Like 83 °F
N
10.0
Wind Variable Wind from SSE
Gusts 12.0 mph

Today
High -- | Low -- °F
--% Chance of Precip.
Yesterday
High -- | Low -- °F
Precip. -- in
7:05 AM 8:16 PM
Waxing Crescent, 24% visible
Pressure 29.93 in
Visibility 10.0 miles
Clouds Clear
Heat Index 83 °F
Dew Point 70 °F
Humidity 72%
Rainfall 0.00 in
Snow Depth Not available.
UV 9 out of 12
Pollen 10.10 out of 12
Air Quality Not available.
Flu Activity Not available.
METAR KLXN 301915Z AUTO 16009G14KT 10SM CLR 27/19 A2993 RMK AO2 T02690193

More Conditions Fewer Conditions

Pressure 29.93 in
Visibility 10.0 miles
Clouds Clear
Heat Index 83 °F
Dew Point 70 °F
Humidity 72%
Rainfall 0.00 in
Snow Depth Not available.
UV 9 out of 12
Pollen 10.10 out of 12
Air Quality Not available.
Flu Activity Not available.
METAR KLXN 301915Z AUTO 16009G14KT 10SM CLR 27/19 A2993 RMK AO2 T02690193

More Conditions Fewer Conditions

10-Day Weather Forecast

Almanac

Astronomy

Aug. 30, 2014 Rise Set
Actual Time 7:05 AM CDT 8:16 PM CDT
Civil Twilight 6:37 AM CDT 8:44 PM CDT
Nautical Twilight 6:03 AM CDT 9:18 PM CDT
Astronomical Twilight 5:27 AM CDT 9:53 PM CDT
Moon 11:57 AM CDT 10:49 PM CDT
Length of Visible Light 14h 07m
Length of Day
13h 10m
Tomorrow will be 2m 37s shorter.
Waxing Crescent, 24% of the Moon is Illuminated
Today
Waxing Crescent
Sep 2
First Quarter
Sep 8
Full
Sep 15
Last Quarter
Sep 24
New

Today's Extremes

State Highs State Lows

Community

WunderPhotos

Upload Photos

1,748,608 photos uploaded!

WunderBlogs® & News

Nearby

Snow Depth

Station Depth Elevation
No new snow has been reported.

Earthquake Activity

City Distance Mag. Time & Date
No recent earthquake activity has been reported nearby.
Minimum magnitude displayed is 2.5.

Coastal Water Temperatures

Place Temperature
No Stations Reporting

Nearby Weather Stations